sensor_id;sensor_type;location;lat;lon;timestamp;P1;durP1;ratioP1;P2;durP2;ratioP2
16979;SDS011;42288;52.182;21.156;2022-12-18T00:02:09;44.00;;;19.90;;
16979;SDS011;42288;52.182;21.156;2022-12-18T00:04:35;51.63;;;20.97;;
16979;SDS011;42288;52.182;21.156;2022-12-18T00:07:01;49.97;;;20.07;;
16979;SDS011;42288;52.182;21.156;2022-12-18T00:09:26;44.77;;;19.67;;
16979;SDS011;42288;52.182;21.156;2022-12-18T00:11:52;47.77;;;20.63;;
16979;SDS011;42288;52.182;21.156;2022-12-18T00:14:17;49.70;;;20.37;;
16979;SDS011;42288;52.182;21.156;2022-12-18T00:16:44;43.17;;;19.13;;
16979;SDS011;42288;52.182;21.156;2022-12-18T00:19:11;52.07;;;20.97;;
16979;SDS011;42288;52.182;21.156;2022-12-18T00:21:37;55.37;;;22.07;;
16979;SDS011;42288;52.182;21.156;2022-12-18T00:24:02;47.10;;;20.10;;
16979;SDS011;42288;52.182;21.156;2022-12-18T00:26:29;49.43;;;19.03;;
16979;SDS011;42288;52.182;21.156;2022-12-18T00:29:14;47.73;;;20.47;;
16979;SDS011;42288;52.182;21.156;2022-12-18T00:31:40;47.63;;;19.47;;
16979;SDS011;42288;52.182;21.156;2022-12-18T00:34:08;43.80;;;18.93;;
16979;SDS011;42288;52.182;21.156;2022-12-18T00:36:35;49.93;;;20.43;;
16979;SDS011;42288;52.182;21.156;2022-12-18T00:39:02;46.27;;;20.07;;
16979;SDS011;42288;52.182;21.156;2022-12-18T00:41:29;53.97;;;22.10;;
16979;SDS011;42288;52.182;21.156;2022-12-18T00:44:14;55.73;;;21.60;;
16979;SDS011;42288;52.182;21.156;2022-12-18T00:46:42;47.10;;;20.87;;
16979;SDS011;42288;52.182;21.156;2022-12-18T00:49:08;55.03;;;22.17;;
16979;SDS011;42288;52.182;21.156;2022-12-18T00:51:37;57.60;;;21.57;;
16979;SDS011;42288;52.182;21.156;2022-12-18T00:54:02;45.83;;;21.23;;
16979;SDS011;42288;52.182;21.156;2022-12-18T00:56:28;49.33;;;21.17;;
16979;SDS011;42288;52.182;21.156;2022-12-18T00:58:53;42.30;;;18.53;;
16979;SDS011;42288;52.182;21.156;2022-12-18T01:01:19;47.73;;;21.67;;
16979;SDS011;42288;52.182;21.156;2022-12-18T01:03:45;50.37;;;21.40;;
16979;SDS011;42288;52.182;21.156;2022-12-18T01:06:12;48.40;;;20.47;;
16979;SDS011;42288;52.182;21.156;2022-12-18T01:08:39;35.77;;;16.17;;
16979;SDS011;42288;52.182;21.156;2022-12-18T01:11:09;36.00;;;16.93;;
16979;SDS011;42288;52.182;21.156;2022-12-18T01:13:39;33.10;;;14.73;;
16979;SDS011;42288;52.182;21.156;2022-12-18T01:16:06;37.23;;;15.57;;
16979;SDS011;42288;52.182;21.156;2022-12-18T01:18:32;39.07;;;16.37;;
16979;SDS011;42288;52.182;21.156;2022-12-18T01:20:57;37.93;;;15.77;;
16979;SDS011;42288;52.182;21.156;2022-12-18T01:23:26;37.37;;;17.17;;
16979;SDS011;42288;52.182;21.156;2022-12-18T01:25:51;37.20;;;15.27;;
16979;SDS011;42288;52.182;21.156;2022-12-18T01:28:17;37.23;;;16.53;;
16979;SDS011;42288;52.182;21.156;2022-12-18T01:30:42;40.33;;;17.43;;
16979;SDS011;42288;52.182;21.156;2022-12-18T01:33:08;39.57;;;16.27;;
16979;SDS011;42288;52.182;21.156;2022-12-18T01:35:39;38.10;;;17.03;;
16979;SDS011;42288;52.182;21.156;2022-12-18T01:38:05;36.97;;;15.40;;
16979;SDS011;42288;52.182;21.156;2022-12-18T01:40:31;37.23;;;16.50;;
16979;SDS011;42288;52.182;21.156;2022-12-18T01:42:56;34.47;;;16.27;;
16979;SDS011;42288;52.182;21.156;2022-12-18T01:45:22;33.57;;;15.63;;
16979;SDS011;42288;52.182;21.156;2022-12-18T01:47:55;38.17;;;15.57;;
16979;SDS011;42288;52.182;21.156;2022-12-18T01:50:36;39.70;;;16.67;;
16979;SDS011;42288;52.182;21.156;2022-12-18T01:55:46;36.07;;;15.67;;
16979;SDS011;42288;52.182;21.156;2022-12-18T01:58:14;32.47;;;14.63;;
16979;SDS011;42288;52.182;21.156;2022-12-18T02:00:40;38.73;;;15.47;;
16979;SDS011;42288;52.182;21.156;2022-12-18T02:03:06;39.03;;;17.00;;
16979;SDS011;42288;52.182;21.156;2022-12-18T02:08:07;38.40;;;16.20;;
16979;SDS011;42288;52.182;21.156;2022-12-18T02:10:41;36.47;;;15.03;;
16979;SDS011;42288;52.182;21.156;2022-12-18T02:14:02;36.07;;;15.73;;
16979;SDS011;42288;52.182;21.156;2022-12-18T02:16:31;36.87;;;15.20;;
16979;SDS011;42288;52.182;21.156;2022-12-18T02:22:26;38.83;;;16.73;;
16979;SDS011;42288;52.182;21.156;2022-12-18T02:25:12;32.43;;;14.60;;
16979;SDS011;42288;52.182;21.156;2022-12-18T02:27:38;30.83;;;14.50;;
16979;SDS011;42288;52.182;21.156;2022-12-18T02:30:05;36.03;;;14.67;;
16979;SDS011;42288;52.182;21.156;2022-12-18T02:32:34;34.83;;;14.27;;
16979;SDS011;42288;52.182;21.156;2022-12-18T02:35:04;36.87;;;15.77;;
16979;SDS011;42288;52.182;21.156;2022-12-18T02:37:33;36.07;;;15.07;;
16979;SDS011;42288;52.182;21.156;2022-12-18T02:40:00;34.47;;;15.47;;
16979;SDS011;42288;52.182;21.156;2022-12-18T02:42:28;34.23;;;15.43;;
16979;SDS011;42288;52.182;21.156;2022-12-18T02:44:54;34.10;;;15.20;;
16979;SDS011;42288;52.182;21.156;2022-12-18T02:47:20;39.73;;;16.13;;
16979;SDS011;42288;52.182;21.156;2022-12-18T02:55:25;32.20;;;13.97;;
16979;SDS011;42288;52.182;21.156;2022-12-18T03:03:17;33.87;;;13.73;;
16979;SDS011;42288;52.182;21.156;2022-12-18T03:05:50;31.23;;;13.30;;
16979;SDS011;42288;52.182;21.156;2022-12-18T03:08:21;31.90;;;13.00;;
16979;SDS011;42288;52.182;21.156;2022-12-18T03:10:58;31.67;;;13.77;;
16979;SDS011;42288;52.182;21.156;2022-12-18T03:16:11;31.37;;;13.40;;
16979;SDS011;42288;52.182;21.156;2022-12-18T03:18:47;29.30;;;13.20;;
16979;SDS011;42288;52.182;21.156;2022-12-18T03:21:17;34.67;;;13.80;;
16979;SDS011;42288;52.182;21.156;2022-12-18T03:23:48;31.13;;;13.10;;
16979;SDS011;42288;52.182;21.156;2022-12-18T03:26:17;36.40;;;13.80;;
16979;SDS011;42288;52.182;21.156;2022-12-18T03:28:47;32.50;;;14.43;;
16979;SDS011;42288;52.182;21.156;2022-12-18T03:31:17;29.33;;;12.87;;
16979;SDS011;42288;52.182;21.156;2022-12-18T03:33:51;29.53;;;12.73;;
16979;SDS011;42288;52.182;21.156;2022-12-18T03:36:22;29.00;;;12.97;;
16979;SDS011;42288;52.182;21.156;2022-12-18T03:38:48;32.03;;;14.00;;
16979;SDS011;42288;52.182;21.156;2022-12-18T03:46:30;32.97;;;13.90;;
16979;SDS011;42288;52.182;21.156;2022-12-18T03:49:48;35.10;;;14.23;;
16979;SDS011;42288;52.182;21.156;2022-12-18T03:51:59;33.90;;;14.13;;
16979;SDS011;42288;52.182;21.156;2022-12-18T03:54:31;39.07;;;15.70;;
16979;SDS011;42288;52.182;21.156;2022-12-18T03:57:04;27.93;;;13.20;;
16979;SDS011;42288;52.182;21.156;2022-12-18T03:59:34;33.47;;;13.67;;
16979;SDS011;42288;52.182;21.156;2022-12-18T04:02:02;32.77;;;12.43;;
16979;SDS011;42288;52.182;21.156;2022-12-18T04:04:30;32.67;;;13.40;;
16979;SDS011;42288;52.182;21.156;2022-12-18T04:06:56;27.63;;;11.90;;
16979;SDS011;42288;52.182;21.156;2022-12-18T04:09:23;27.70;;;13.63;;
16979;SDS011;42288;52.182;21.156;2022-12-18T04:11:49;29.87;;;13.50;;
16979;SDS011;42288;52.182;21.156;2022-12-18T04:14:16;30.13;;;12.47;;
16979;SDS011;42288;52.182;21.156;2022-12-18T04:16:41;39.57;;;13.33;;
16979;SDS011;42288;52.182;21.156;2022-12-18T04:19:07;35.50;;;14.93;;
16979;SDS011;42288;52.182;21.156;2022-12-18T04:21:32;34.07;;;13.80;;
16979;SDS011;42288;52.182;21.156;2022-12-18T04:23:58;38.30;;;14.60;;
16979;SDS011;42288;52.182;21.156;2022-12-18T04:26:23;39.57;;;14.23;;
16979;SDS011;42288;52.182;21.156;2022-12-18T04:28:49;30.03;;;13.63;;
16979;SDS011;42288;52.182;21.156;2022-12-18T04:31:14;28.20;;;12.47;;
16979;SDS011;42288;52.182;21.156;2022-12-18T04:33:40;35.67;;;14.77;;
16979;SDS011;42288;52.182;21.156;2022-12-18T04:36:06;41.63;;;15.03;;
16979;SDS011;42288;52.182;21.156;2022-12-18T04:38:31;35.90;;;13.10;;
16979;SDS011;42288;52.182;21.156;2022-12-18T04:40:57;30.37;;;13.20;;
16979;SDS011;42288;52.182;21.156;2022-12-18T04:43:23;31.63;;;13.27;;
16979;SDS011;42288;52.182;21.156;2022-12-18T04:45:48;30.00;;;12.23;;
16979;SDS011;42288;52.182;21.156;2022-12-18T04:48:14;34.17;;;13.93;;
16979;SDS011;42288;52.182;21.156;2022-12-18T04:50:39;31.83;;;12.47;;
16979;SDS011;42288;52.182;21.156;2022-12-18T04:53:05;28.20;;;12.03;;
16979;SDS011;42288;52.182;21.156;2022-12-18T04:55:30;28.73;;;12.13;;
16979;SDS011;42288;52.182;21.156;2022-12-18T04:57:56;25.57;;;12.00;;
16979;SDS011;42288;52.182;21.156;2022-12-18T05:00:21;29.30;;;12.47;;
16979;SDS011;42288;52.182;21.156;2022-12-18T05:02:47;27.90;;;12.27;;
16979;SDS011;42288;52.182;21.156;2022-12-18T05:05:13;31.03;;;13.37;;
16979;SDS011;42288;52.182;21.156;2022-12-18T05:07:38;29.60;;;11.97;;
16979;SDS011;42288;52.182;21.156;2022-12-18T05:10:05;29.80;;;13.50;;
16979;SDS011;42288;52.182;21.156;2022-12-18T05:12:31;26.90;;;11.47;;
16979;SDS011;42288;52.182;21.156;2022-12-18T05:14:56;27.87;;;12.67;;
16979;SDS011;42288;52.182;21.156;2022-12-18T05:17:22;29.50;;;11.50;;
16979;SDS011;42288;52.182;21.156;2022-12-18T05:19:47;28.07;;;13.00;;
16979;SDS011;42288;52.182;21.156;2022-12-18T05:22:12;26.30;;;11.70;;
16979;SDS011;42288;52.182;21.156;2022-12-18T05:24:38;26.77;;;11.27;;
16979;SDS011;42288;52.182;21.156;2022-12-18T05:27:03;25.47;;;10.67;;
16979;SDS011;42288;52.182;21.156;2022-12-18T05:29:29;28.43;;;11.83;;
16979;SDS011;42288;52.182;21.156;2022-12-18T05:31:55;27.80;;;11.63;;
16979;SDS011;42288;52.182;21.156;2022-12-18T05:34:20;28.20;;;12.40;;
16979;SDS011;42288;52.182;21.156;2022-12-18T05:36:46;26.57;;;11.33;;
16979;SDS011;42288;52.182;21.156;2022-12-18T05:39:11;29.03;;;12.30;;
16979;SDS011;42288;52.182;21.156;2022-12-18T05:41:37;26.87;;;12.03;;
16979;SDS011;42288;52.182;21.156;2022-12-18T05:44:02;31.37;;;12.70;;
16979;SDS011;42288;52.182;21.156;2022-12-18T05:46:28;26.40;;;12.60;;
16979;SDS011;42288;52.182;21.156;2022-12-18T05:48:54;30.90;;;13.20;;
16979;SDS011;42288;52.182;21.156;2022-12-18T05:51:21;27.93;;;11.23;;
16979;SDS011;42288;52.182;21.156;2022-12-18T05:53:47;25.10;;;11.73;;
16979;SDS011;42288;52.182;21.156;2022-12-18T05:56:18;23.97;;;11.47;;
16979;SDS011;42288;52.182;21.156;2022-12-18T05:58:45;27.10;;;11.37;;
16979;SDS011;42288;52.182;21.156;2022-12-18T06:01:16;23.80;;;11.13;;
16979;SDS011;42288;52.182;21.156;2022-12-18T06:03:43;26.80;;;10.50;;
16979;SDS011;42288;52.182;21.156;2022-12-18T06:06:25;25.90;;;11.30;;
16979;SDS011;42288;52.182;21.156;2022-12-18T06:08:52;24.07;;;11.83;;
16979;SDS011;42288;52.182;21.156;2022-12-18T06:11:19;27.37;;;11.57;;
16979;SDS011;42288;52.182;21.156;2022-12-18T06:13:49;29.60;;;12.17;;
16979;SDS011;42288;52.182;21.156;2022-12-18T06:16:16;28.37;;;11.67;;
16979;SDS011;42288;52.182;21.156;2022-12-18T06:18:41;29.43;;;12.63;;
16979;SDS011;42288;52.182;21.156;2022-12-18T06:21:07;31.73;;;12.67;;
16979;SDS011;42288;52.182;21.156;2022-12-18T06:23:32;26.77;;;11.13;;
16979;SDS011;42288;52.182;21.156;2022-12-18T06:25:58;24.87;;;10.93;;
16979;SDS011;42288;52.182;21.156;2022-12-18T06:28:23;22.37;;;10.50;;
16979;SDS011;42288;52.182;21.156;2022-12-18T06:30:49;26.43;;;11.83;;
16979;SDS011;42288;52.182;21.156;2022-12-18T06:33:15;27.73;;;12.00;;
16979;SDS011;42288;52.182;21.156;2022-12-18T06:35:41;28.03;;;11.90;;
16979;SDS011;42288;52.182;21.156;2022-12-18T06:38:07;27.80;;;12.07;;
16979;SDS011;42288;52.182;21.156;2022-12-18T06:40:33;29.00;;;12.93;;
16979;SDS011;42288;52.182;21.156;2022-12-18T06:42:58;28.10;;;12.37;;
16979;SDS011;42288;52.182;21.156;2022-12-18T06:45:24;30.20;;;12.43;;
16979;SDS011;42288;52.182;21.156;2022-12-18T06:47:50;30.63;;;12.60;;
16979;SDS011;42288;52.182;21.156;2022-12-18T06:50:16;31.27;;;14.00;;
16979;SDS011;42288;52.182;21.156;2022-12-18T06:52:41;34.13;;;13.07;;
16979;SDS011;42288;52.182;21.156;2022-12-18T06:55:09;34.90;;;14.30;;
16979;SDS011;42288;52.182;21.156;2022-12-18T06:57:34;35.63;;;16.33;;
16979;SDS011;42288;52.182;21.156;2022-12-18T07:00:00;31.93;;;14.60;;
16979;SDS011;42288;52.182;21.156;2022-12-18T07:02:26;33.97;;;14.77;;
16979;SDS011;42288;52.182;21.156;2022-12-18T07:04:51;40.33;;;15.73;;
16979;SDS011;42288;52.182;21.156;2022-12-18T07:07:17;48.33;;;18.40;;
16979;SDS011;42288;52.182;21.156;2022-12-18T07:09:43;49.90;;;20.10;;
16979;SDS011;42288;52.182;21.156;2022-12-18T07:12:09;61.53;;;25.10;;
16979;SDS011;42288;52.182;21.156;2022-12-18T07:14:34;55.23;;;20.60;;
16979;SDS011;42288;52.182;21.156;2022-12-18T07:17:00;140.10;;;58.43;;
16979;SDS011;42288;52.182;21.156;2022-12-18T07:19:25;58.33;;;23.03;;
16979;SDS011;42288;52.182;21.156;2022-12-18T07:21:51;54.47;;;20.80;;
16979;SDS011;42288;52.182;21.156;2022-12-18T07:24:16;58.47;;;21.20;;
16979;SDS011;42288;52.182;21.156;2022-12-18T07:26:42;57.47;;;23.57;;
16979;SDS011;42288;52.182;21.156;2022-12-18T07:29:10;53.33;;;20.80;;
16979;SDS011;42288;52.182;21.156;2022-12-18T07:31:35;65.80;;;25.60;;
16979;SDS011;42288;52.182;21.156;2022-12-18T07:34:01;64.33;;;22.27;;
16979;SDS011;42288;52.182;21.156;2022-12-18T07:36:26;51.70;;;20.77;;
16979;SDS011;42288;52.182;21.156;2022-12-18T07:38:52;66.20;;;25.30;;
16979;SDS011;42288;52.182;21.156;2022-12-18T07:41:17;66.83;;;24.27;;
16979;SDS011;42288;52.182;21.156;2022-12-18T07:43:44;78.23;;;33.57;;
16979;SDS011;42288;52.182;21.156;2022-12-18T07:46:10;54.87;;;20.93;;
16979;SDS011;42288;52.182;21.156;2022-12-18T07:48:38;61.57;;;26.97;;
16979;SDS011;42288;52.182;21.156;2022-12-18T07:51:05;57.63;;;21.50;;
16979;SDS011;42288;52.182;21.156;2022-12-18T07:53:31;63.90;;;23.07;;
16979;SDS011;42288;52.182;21.156;2022-12-18T07:56:08;61.67;;;21.73;;
16979;SDS011;42288;52.182;21.156;2022-12-18T07:58:35;59.73;;;20.80;;
16979;SDS011;42288;52.182;21.156;2022-12-18T08:01:05;55.77;;;20.17;;
16979;SDS011;42288;52.182;21.156;2022-12-18T08:03:32;68.67;;;22.97;;
16979;SDS011;42288;52.182;21.156;2022-12-18T08:06:02;58.13;;;21.67;;
16979;SDS011;42288;52.182;21.156;2022-12-18T08:08:29;58.33;;;22.17;;
16979;SDS011;42288;52.182;21.156;2022-12-18T08:10:55;59.13;;;20.97;;
16979;SDS011;42288;52.182;21.156;2022-12-18T08:13:21;64.40;;;22.70;;
16979;SDS011;42288;52.182;21.156;2022-12-18T08:15:46;62.17;;;22.40;;
16979;SDS011;42288;52.182;21.156;2022-12-18T08:18:20;58.60;;;22.03;;
16979;SDS011;42288;52.182;21.156;2022-12-18T08:20:45;54.63;;;19.97;;
16979;SDS011;42288;52.182;21.156;2022-12-18T08:23:11;73.73;;;26.50;;
16979;SDS011;42288;52.182;21.156;2022-12-18T08:25:36;90.23;;;35.93;;
16979;SDS011;42288;52.182;21.156;2022-12-18T08:28:02;82.80;;;29.90;;
16979;SDS011;42288;52.182;21.156;2022-12-18T08:30:27;59.33;;;22.03;;
16979;SDS011;42288;52.182;21.156;2022-12-18T08:32:53;67.00;;;24.97;;
16979;SDS011;42288;52.182;21.156;2022-12-18T08:35:18;61.57;;;22.23;;
16979;SDS011;42288;52.182;21.156;2022-12-18T08:37:44;62.67;;;24.17;;
16979;SDS011;42288;52.182;21.156;2022-12-18T08:40:10;104.63;;;39.77;;
16979;SDS011;42288;52.182;21.156;2022-12-18T08:42:35;61.40;;;25.00;;
16979;SDS011;42288;52.182;21.156;2022-12-18T08:45:20;56.67;;;20.37;;
16979;SDS011;42288;52.182;21.156;2022-12-18T08:47:45;61.80;;;22.60;;
16979;SDS011;42288;52.182;21.156;2022-12-18T08:50:11;155.43;;;65.07;;
16979;SDS011;42288;52.182;21.156;2022-12-18T08:52:36;83.03;;;31.13;;
16979;SDS011;42288;52.182;21.156;2022-12-18T08:55:02;69.30;;;26.33;;
16979;SDS011;42288;52.182;21.156;2022-12-18T08:57:28;60.77;;;21.40;;
16979;SDS011;42288;52.182;21.156;2022-12-18T08:59:53;105.53;;;42.53;;
16979;SDS011;42288;52.182;21.156;2022-12-18T09:02:19;133.23;;;60.80;;
16979;SDS011;42288;52.182;21.156;2022-12-18T09:04:46;72.80;;;26.93;;
16979;SDS011;42288;52.182;21.156;2022-12-18T09:07:12;78.83;;;35.60;;
16979;SDS011;42288;52.182;21.156;2022-12-18T09:09:38;69.63;;;29.13;;
16979;SDS011;42288;52.182;21.156;2022-12-18T09:12:03;68.53;;;29.70;;
16979;SDS011;42288;52.182;21.156;2022-12-18T09:14:29;65.17;;;25.70;;
16979;SDS011;42288;52.182;21.156;2022-12-18T09:16:54;60.37;;;23.03;;
16979;SDS011;42288;52.182;21.156;2022-12-18T09:19:20;58.40;;;22.00;;
16979;SDS011;42288;52.182;21.156;2022-12-18T09:21:45;58.43;;;21.43;;
16979;SDS011;42288;52.182;21.156;2022-12-18T09:24:11;78.63;;;31.83;;
16979;SDS011;42288;52.182;21.156;2022-12-18T09:26:38;53.70;;;21.73;;
16979;SDS011;42288;52.182;21.156;2022-12-18T09:29:04;52.03;;;19.43;;
16979;SDS011;42288;52.182;21.156;2022-12-18T09:31:31;61.20;;;21.73;;
16979;SDS011;42288;52.182;21.156;2022-12-18T09:33:58;52.37;;;20.13;;
16979;SDS011;42288;52.182;21.156;2022-12-18T09:36:23;50.60;;;19.73;;
16979;SDS011;42288;52.182;21.156;2022-12-18T09:38:49;47.80;;;17.80;;
16979;SDS011;42288;52.182;21.156;2022-12-18T09:41:32;56.33;;;21.17;;
16979;SDS011;42288;52.182;21.156;2022-12-18T09:44:16;61.43;;;21.17;;
16979;SDS011;42288;52.182;21.156;2022-12-18T09:46:50;50.33;;;18.97;;
16979;SDS011;42288;52.182;21.156;2022-12-18T09:49:38;55.00;;;21.97;;
16979;SDS011;42288;52.182;21.156;2022-12-18T09:54:41;47.83;;;19.40;;
16979;SDS011;42288;52.182;21.156;2022-12-18T09:57:18;54.43;;;20.57;;
16979;SDS011;42288;52.182;21.156;2022-12-18T09:59:51;50.53;;;18.73;;
16979;SDS011;42288;52.182;21.156;2022-12-18T10:02:32;52.77;;;20.00;;
16979;SDS011;42288;52.182;21.156;2022-12-18T10:10:38;53.73;;;21.47;;
16979;SDS011;42288;52.182;21.156;2022-12-18T10:13:14;57.80;;;22.23;;
16979;SDS011;42288;52.182;21.156;2022-12-18T10:21:32;57.53;;;21.30;;
16979;SDS011;42288;52.182;21.156;2022-12-18T10:24:10;54.57;;;20.53;;
16979;SDS011;42288;52.182;21.156;2022-12-18T10:26:42;58.43;;;21.70;;
16979;SDS011;42288;52.182;21.156;2022-12-18T10:29:10;51.90;;;20.80;;
16979;SDS011;42288;52.182;21.156;2022-12-18T10:31:38;57.40;;;20.97;;
16979;SDS011;42288;52.182;21.156;2022-12-18T10:34:04;55.23;;;20.97;;
16979;SDS011;42288;52.182;21.156;2022-12-18T10:36:33;55.23;;;20.50;;
16979;SDS011;42288;52.182;21.156;2022-12-18T10:41:40;47.83;;;19.90;;
16979;SDS011;42288;52.182;21.156;2022-12-18T10:44:15;54.57;;;20.53;;
16979;SDS011;42288;52.182;21.156;2022-12-18T10:46:46;63.57;;;23.70;;
16979;SDS011;42288;52.182;21.156;2022-12-18T10:49:22;56.43;;;23.00;;
16979;SDS011;42288;52.182;21.156;2022-12-18T10:52:04;59.93;;;22.90;;
16979;SDS011;42288;52.182;21.156;2022-12-18T10:54:32;56.93;;;23.00;;
16979;SDS011;42288;52.182;21.156;2022-12-18T10:59:56;94.37;;;40.57;;
16979;SDS011;42288;52.182;21.156;2022-12-18T11:02:35;71.00;;;28.07;;
16979;SDS011;42288;52.182;21.156;2022-12-18T11:05:03;68.60;;;24.90;;
16979;SDS011;42288;52.182;21.156;2022-12-18T11:07:48;64.70;;;25.00;;
16979;SDS011;42288;52.182;21.156;2022-12-18T11:10:18;66.53;;;26.53;;
16979;SDS011;42288;52.182;21.156;2022-12-18T11:12:45;66.00;;;25.73;;
16979;SDS011;42288;52.182;21.156;2022-12-18T11:15:16;66.03;;;25.10;;
16979;SDS011;42288;52.182;21.156;2022-12-18T11:17:46;73.33;;;28.13;;
16979;SDS011;42288;52.182;21.156;2022-12-18T11:22:54;71.33;;;28.00;;
16979;SDS011;42288;52.182;21.156;2022-12-18T11:25:22;77.57;;;28.53;;
16979;SDS011;42288;52.182;21.156;2022-12-18T11:27:48;75.37;;;29.57;;
16979;SDS011;42288;52.182;21.156;2022-12-18T11:32:47;65.57;;;24.87;;
16979;SDS011;42288;52.182;21.156;2022-12-18T11:37:57;62.43;;;25.23;;
16979;SDS011;42288;52.182;21.156;2022-12-18T11:40:38;70.10;;;27.57;;
16979;SDS011;42288;52.182;21.156;2022-12-18T11:43:10;70.97;;;27.23;;
16979;SDS011;42288;52.182;21.156;2022-12-18T11:45:41;68.43;;;28.23;;
16979;SDS011;42288;52.182;21.156;2022-12-18T11:48:16;86.43;;;31.13;;
16979;SDS011;42288;52.182;21.156;2022-12-18T11:50:55;79.10;;;29.07;;
16979;SDS011;42288;52.182;21.156;2022-12-18T11:53:24;72.77;;;26.53;;
16979;SDS011;42288;52.182;21.156;2022-12-18T11:58:51;64.40;;;25.03;;
16979;SDS011;42288;52.182;21.156;2022-12-18T12:01:48;67.33;;;26.33;;
16979;SDS011;42288;52.182;21.156;2022-12-18T12:07:25;73.23;;;26.17;;
16979;SDS011;42288;52.182;21.156;2022-12-18T12:13:37;67.90;;;25.87;;
16979;SDS011;42288;52.182;21.156;2022-12-18T12:18:55;74.63;;;26.53;;
16979;SDS011;42288;52.182;21.156;2022-12-18T12:21:49;70.23;;;26.07;;
16979;SDS011;42288;52.182;21.156;2022-12-18T12:33:18;68.20;;;26.63;;
16979;SDS011;42288;52.182;21.156;2022-12-18T12:36:18;62.97;;;24.77;;
16979;SDS011;42288;52.182;21.156;2022-12-18T12:39:07;68.87;;;25.40;;
16979;SDS011;42288;52.182;21.156;2022-12-18T12:41:39;67.43;;;25.47;;
16979;SDS011;42288;52.182;21.156;2022-12-18T12:44:27;67.77;;;26.50;;
16979;SDS011;42288;52.182;21.156;2022-12-18T12:46:58;64.20;;;24.40;;
16979;SDS011;42288;52.182;21.156;2022-12-18T12:49:30;63.37;;;24.43;;
16979;SDS011;42288;52.182;21.156;2022-12-18T12:52:05;61.20;;;23.07;;
16979;SDS011;42288;52.182;21.156;2022-12-18T12:54:37;66.53;;;26.07;;
16979;SDS011;42288;52.182;21.156;2022-12-18T13:00:09;69.90;;;26.07;;
16979;SDS011;42288;52.182;21.156;2022-12-18T13:02:41;69.03;;;25.17;;
16979;SDS011;42288;52.182;21.156;2022-12-18T13:08:02;80.37;;;28.37;;
16979;SDS011;42288;52.182;21.156;2022-12-18T13:13:00;66.10;;;24.47;;
16979;SDS011;42288;52.182;21.156;2022-12-18T13:15:44;68.30;;;26.10;;
16979;SDS011;42288;52.182;21.156;2022-12-18T13:18:12;70.90;;;27.43;;
16979;SDS011;42288;52.182;21.156;2022-12-18T13:20:42;64.93;;;23.63;;
16979;SDS011;42288;52.182;21.156;2022-12-18T13:25:55;58.93;;;24.03;;
16979;SDS011;42288;52.182;21.156;2022-12-18T13:30:50;63.53;;;24.57;;
16979;SDS011;42288;52.182;21.156;2022-12-18T13:38:35;71.90;;;26.40;;
16979;SDS011;42288;52.182;21.156;2022-12-18T13:46:20;71.67;;;27.13;;
16979;SDS011;42288;52.182;21.156;2022-12-18T13:49:01;63.33;;;23.90;;
16979;SDS011;42288;52.182;21.156;2022-12-18T13:51:31;73.30;;;28.17;;
16979;SDS011;42288;52.182;21.156;2022-12-18T13:53:59;64.67;;;25.20;;
16979;SDS011;42288;52.182;21.156;2022-12-18T13:56:28;107.10;;;38.37;;
16979;SDS011;42288;52.182;21.156;2022-12-18T13:59:06;77.47;;;29.50;;
16979;SDS011;42288;52.182;21.156;2022-12-18T14:04:19;65.63;;;25.30;;
16979;SDS011;42288;52.182;21.156;2022-12-18T14:06:49;74.60;;;26.77;;
16979;SDS011;42288;52.182;21.156;2022-12-18T14:09:28;71.57;;;27.40;;
16979;SDS011;42288;52.182;21.156;2022-12-18T14:11:56;68.50;;;27.13;;
16979;SDS011;42288;52.182;21.156;2022-12-18T14:14:42;64.10;;;25.60;;
16979;SDS011;42288;52.182;21.156;2022-12-18T14:17:10;60.47;;;22.97;;
16979;SDS011;42288;52.182;21.156;2022-12-18T14:19:37;66.50;;;24.57;;
16979;SDS011;42288;52.182;21.156;2022-12-18T14:22:12;62.60;;;23.60;;
16979;SDS011;42288;52.182;21.156;2022-12-18T14:25:04;60.87;;;23.77;;
16979;SDS011;42288;52.182;21.156;2022-12-18T14:27:44;61.60;;;23.33;;
16979;SDS011;42288;52.182;21.156;2022-12-18T14:30:36;58.17;;;23.17;;
16979;SDS011;42288;52.182;21.156;2022-12-18T14:33:13;60.23;;;23.23;;
16979;SDS011;42288;52.182;21.156;2022-12-18T14:36:00;61.60;;;23.90;;
16979;SDS011;42288;52.182;21.156;2022-12-18T14:38:32;69.77;;;24.53;;
16979;SDS011;42288;52.182;21.156;2022-12-18T14:43:35;64.80;;;24.27;;
16979;SDS011;42288;52.182;21.156;2022-12-18T14:46:24;59.27;;;23.77;;
16979;SDS011;42288;52.182;21.156;2022-12-18T14:48:58;62.43;;;21.83;;
16979;SDS011;42288;52.182;21.156;2022-12-18T14:51:25;57.80;;;23.73;;
16979;SDS011;42288;52.182;21.156;2022-12-18T14:53:55;64.47;;;24.07;;
16979;SDS011;42288;52.182;21.156;2022-12-18T14:56:29;63.43;;;24.77;;
16979;SDS011;42288;52.182;21.156;2022-12-18T14:58:58;58.37;;;22.20;;
16979;SDS011;42288;52.182;21.156;2022-12-18T15:01:34;59.37;;;23.23;;
16979;SDS011;42288;52.182;21.156;2022-12-18T15:04:03;56.40;;;22.50;;
16979;SDS011;42288;52.182;21.156;2022-12-18T15:06:34;59.70;;;23.13;;
16979;SDS011;42288;52.182;21.156;2022-12-18T15:09:04;59.83;;;23.30;;
16979;SDS011;42288;52.182;21.156;2022-12-18T15:11:45;62.13;;;23.83;;
16979;SDS011;42288;52.182;21.156;2022-12-18T15:16:57;64.37;;;24.27;;
16979;SDS011;42288;52.182;21.156;2022-12-18T15:19:35;67.03;;;25.10;;
16979;SDS011;42288;52.182;21.156;2022-12-18T15:22:04;59.47;;;25.20;;
16979;SDS011;42288;52.182;21.156;2022-12-18T15:24:40;62.47;;;24.63;;
16979;SDS011;42288;52.182;21.156;2022-12-18T15:27:17;65.40;;;25.30;;
16979;SDS011;42288;52.182;21.156;2022-12-18T15:32:32;67.77;;;24.40;;
16979;SDS011;42288;52.182;21.156;2022-12-18T15:37:36;65.67;;;24.77;;
16979;SDS011;42288;52.182;21.156;2022-12-18T15:40:05;63.77;;;22.20;;
16979;SDS011;42288;52.182;21.156;2022-12-18T15:42:31;52.77;;;20.27;;
16979;SDS011;42288;52.182;21.156;2022-12-18T15:45:15;54.53;;;21.00;;
16979;SDS011;42288;52.182;21.156;2022-12-18T15:47:41;52.63;;;19.47;;
16979;SDS011;42288;52.182;21.156;2022-12-18T15:50:07;52.77;;;21.47;;
16979;SDS011;42288;52.182;21.156;2022-12-18T15:52:36;55.97;;;20.67;;
16979;SDS011;42288;52.182;21.156;2022-12-18T15:55:10;56.40;;;22.83;;
16979;SDS011;42288;52.182;21.156;2022-12-18T15:57:57;58.50;;;22.10;;
16979;SDS011;42288;52.182;21.156;2022-12-18T16:00:22;55.53;;;21.40;;
16979;SDS011;42288;52.182;21.156;2022-12-18T16:02:48;53.90;;;20.97;;
16979;SDS011;42288;52.182;21.156;2022-12-18T16:05:14;59.13;;;21.60;;
16979;SDS011;42288;52.182;21.156;2022-12-18T16:07:41;60.50;;;22.43;;
16979;SDS011;42288;52.182;21.156;2022-12-18T16:10:08;58.80;;;23.87;;
16979;SDS011;42288;52.182;21.156;2022-12-18T16:12:34;63.00;;;26.57;;
16979;SDS011;42288;52.182;21.156;2022-12-18T16:15:00;61.70;;;22.57;;
16979;SDS011;42288;52.182;21.156;2022-12-18T16:17:25;57.50;;;22.17;;